Toro, Spain
Current Conditions -  °F | °C
As of 9:30 PM on Thursday 23 Oct 2014 (Local Time) from LEVD Reporting Station
Clear Clear  
Wind Chill: 57°   Ceiling: Unl
Heat Index: 57°   Visibility: 6mi
Dew Point: 46°   Wind: 1mph
Humidity: 67%   Direction: 310°NW
Pressure: 30.27"   Gusts: NA
Location:  41.53°N, 5.39°W
Report Text: LEVD 231930Z 31001KT CAVOK 14/08 Q1025
Loading
Personal Weather Stations






























Interactive Weather Map
Tropical Storm Tracking
New forecast layout! Learn more

10-Day Weather Forecast

Advertisements
Track Severe Weather on mobile